sensor_id;sensor_type;location;lat;lon;timestamp;pressure;altitude;pressure_sealevel;temperature;humidity
4981;BME280;2507;50.392;7.482;2022-10-17T00:02:12;101091.84;;;16.10;91.20
4981;BME280;2507;50.392;7.482;2022-10-17T00:04:38;101091.66;;;15.82;92.26
4981;BME280;2507;50.392;7.482;2022-10-17T00:07:03;101105.34;;;15.66;94.01
4981;BME280;2507;50.392;7.482;2022-10-17T00:09:28;101105.75;;;15.62;94.81
4981;BME280;2507;50.392;7.482;2022-10-17T00:11:53;101101.81;;;15.77;94.04
4981;BME280;2507;50.392;7.482;2022-10-17T00:14:19;101094.41;;;15.71;94.81
4981;BME280;2507;50.392;7.482;2022-10-17T00:16:44;101102.56;;;15.68;94.38
4981;BME280;2507;50.392;7.482;2022-10-17T00:19:09;101109.22;;;15.83;94.37
4981;BME280;2507;50.392;7.482;2022-10-17T00:21:35;101105.53;;;15.95;92.89
4981;BME280;2507;50.392;7.482;2022-10-17T00:24:00;101121.13;;;15.88;93.65
4981;BME280;2507;50.392;7.482;2022-10-17T00:26:26;101114.38;;;16.05;94.01
4981;BME280;2507;50.392;7.482;2022-10-17T00:28:53;101102.94;;;16.25;93.48
4981;BME280;2507;50.392;7.482;2022-10-17T00:31:20;101112.97;;;16.31;92.27
4981;BME280;2507;50.392;7.482;2022-10-17T00:33:46;101114.53;;;16.33;92.13
4981;BME280;2507;50.392;7.482;2022-10-17T00:36:20;101110.41;;;16.20;92.67
4981;BME280;2507;50.392;7.482;2022-10-17T00:38:48;101119.03;;;16.12;91.63
4981;BME280;2507;50.392;7.482;2022-10-17T00:41:16;101123.34;;;15.93;92.86
4981;BME280;2507;50.392;7.482;2022-10-17T00:46:16;101130.69;;;15.80;93.22
4981;BME280;2507;50.392;7.482;2022-10-17T00:48:42;101124.47;;;15.70;93.92
4981;BME280;2507;50.392;7.482;2022-10-17T00:51:08;101129.97;;;15.78;93.39
4981;BME280;2507;50.392;7.482;2022-10-17T00:53:34;101131.34;;;15.82;93.50
4981;BME280;2507;50.392;7.482;2022-10-17T00:56:01;101133.50;;;15.88;93.22
4981;BME280;2507;50.392;7.482;2022-10-17T00:58:26;101128.72;;;15.82;92.84
4981;BME280;2507;50.392;7.482;2022-10-17T01:00:52;101127.38;;;15.67;93.51
4981;BME280;2507;50.392;7.482;2022-10-17T01:03:17;101130.84;;;15.47;92.24
4981;BME280;2507;50.392;7.482;2022-10-17T01:05:42;101125.28;;;15.50;92.51
4981;BME280;2507;50.392;7.482;2022-10-17T01:08:08;101120.78;;;15.18;93.62
4981;BME280;2507;50.392;7.482;2022-10-17T01:10:53;101121.66;;;15.19;93.07
4981;BME280;2507;50.392;7.482;2022-10-17T01:13:30;101127.56;;;15.11;94.42
4981;BME280;2507;50.392;7.482;2022-10-17T01:18:57;101122.53;;;15.08;93.33
4981;BME280;2507;50.392;7.482;2022-10-17T01:21:39;101124.78;;;15.13;94.10
4981;BME280;2507;50.392;7.482;2022-10-17T01:27:14;101120.22;;;15.15;93.97
4981;BME280;2507;50.392;7.482;2022-10-17T01:30:07;101118.84;;;15.00;95.34
4981;BME280;2507;50.392;7.482;2022-10-17T01:32:49;101125.63;;;15.13;95.24
4981;BME280;2507;50.392;7.482;2022-10-17T01:35:31;101129.47;;;15.09;94.99
4981;BME280;2507;50.392;7.482;2022-10-17T01:38:14;101131.03;;;15.12;96.38
4981;BME280;2507;50.392;7.482;2022-10-17T01:40:50;101132.91;;;15.32;95.50
4981;BME280;2507;50.392;7.482;2022-10-17T01:46:37;101126.13;;;15.39;95.46
4981;BME280;2507;50.392;7.482;2022-10-17T01:49:05;101120.03;;;15.27;96.37
4981;BME280;2507;50.392;7.482;2022-10-17T01:51:44;101118.81;;;15.43;96.13
4981;BME280;2507;50.392;7.482;2022-10-17T01:54:22;101123.34;;;15.52;95.84
4981;BME280;2507;50.392;7.482;2022-10-17T01:56:54;101125.38;;;15.59;95.31
4981;BME280;2507;50.392;7.482;2022-10-17T01:59:28;101121.09;;;15.47;94.47
4981;BME280;2507;50.392;7.482;2022-10-17T02:01:57;101121.94;;;15.36;93.19
4981;BME280;2507;50.392;7.482;2022-10-17T02:04:23;101128.50;;;15.21;94.62
4981;BME280;2507;50.392;7.482;2022-10-17T02:06:49;101131.63;;;15.15;93.91
4981;BME280;2507;50.392;7.482;2022-10-17T02:09:20;101124.69;;;15.14;95.26
4981;BME280;2507;50.392;7.482;2022-10-17T02:12:02;101125.81;;;15.32;94.61
4981;BME280;2507;50.392;7.482;2022-10-17T02:20:53;101123.41;;;15.29;92.98
4981;BME280;2507;50.392;7.482;2022-10-17T02:26:10;101125.09;;;15.30;93.51
4981;BME280;2507;50.392;7.482;2022-10-17T02:28:46;101125.81;;;15.32;93.32
4981;BME280;2507;50.392;7.482;2022-10-17T02:31:21;101120.03;;;15.27;93.39
4981;BME280;2507;50.392;7.482;2022-10-17T02:33:59;101117.97;;;15.42;92.97
4981;BME280;2507;50.392;7.482;2022-10-17T02:36:32;101122.31;;;15.43;92.52
4981;BME280;2507;50.392;7.482;2022-10-17T02:39:02;101130.13;;;15.45;92.36
4981;BME280;2507;50.392;7.482;2022-10-17T02:41:29;101129.03;;;15.47;92.52
4981;BME280;2507;50.392;7.482;2022-10-17T02:43:55;101128.56;;;15.42;92.75
4981;BME280;2507;50.392;7.482;2022-10-17T02:46:22;101127.25;;;15.25;92.74
4981;BME280;2507;50.392;7.482;2022-10-17T02:49:06;101133.94;;;15.09;94.10
4981;BME280;2507;50.392;7.482;2022-10-17T02:54:16;101132.28;;;14.97;93.00
4981;BME280;2507;50.392;7.482;2022-10-17T02:56:50;101135.16;;;15.05;93.62
4981;BME280;2507;50.392;7.482;2022-10-17T02:59:19;101138.16;;;14.89;92.17
4981;BME280;2507;50.392;7.482;2022-10-17T03:01:47;101137.44;;;14.87;93.15
4981;BME280;2507;50.392;7.482;2022-10-17T03:04:13;101134.34;;;14.82;93.42
4981;BME280;2507;50.392;7.482;2022-10-17T03:06:40;101137.69;;;14.95;93.39
4981;BME280;2507;50.392;7.482;2022-10-17T03:09:05;101137.53;;;15.08;93.14
4981;BME280;2507;50.392;7.482;2022-10-17T03:11:31;101138.13;;;15.11;92.39
4981;BME280;2507;50.392;7.482;2022-10-17T03:13:56;101134.88;;;15.19;92.04
4981;BME280;2507;50.392;7.482;2022-10-17T03:16:21;101134.41;;;15.14;91.76
4981;BME280;2507;50.392;7.482;2022-10-17T03:18:47;101138.38;;;15.08;93.18
4981;BME280;2507;50.392;7.482;2022-10-17T03:21:12;101139.47;;;15.06;93.24
4981;BME280;2507;50.392;7.482;2022-10-17T03:23:37;101142.97;;;14.95;93.75
4981;BME280;2507;50.392;7.482;2022-10-17T03:26:06;101134.19;;;14.95;93.97
4981;BME280;2507;50.392;7.482;2022-10-17T03:28:32;101143.69;;;14.97;94.74
4981;BME280;2507;50.392;7.482;2022-10-17T03:30:58;101155.19;;;15.07;94.11
4981;BME280;2507;50.392;7.482;2022-10-17T03:33:23;101134.63;;;15.11;93.55
4981;BME280;2507;50.392;7.482;2022-10-17T03:35:48;101142.09;;;15.06;93.54
4981;BME280;2507;50.392;7.482;2022-10-17T03:38:14;101137.06;;;15.03;93.24
4981;BME280;2507;50.392;7.482;2022-10-17T03:40:39;101133.81;;;15.10;93.96
4981;BME280;2507;50.392;7.482;2022-10-17T03:43:05;101132.47;;;15.16;93.37
4981;BME280;2507;50.392;7.482;2022-10-17T03:45:30;101133.09;;;15.08;92.84
4981;BME280;2507;50.392;7.482;2022-10-17T03:47:57;101142.00;;;14.96;93.47
4981;BME280;2507;50.392;7.482;2022-10-17T03:50:22;101145.88;;;14.81;94.43
4981;BME280;2507;50.392;7.482;2022-10-17T03:52:48;101141.66;;;14.79;94.51
4981;BME280;2507;50.392;7.482;2022-10-17T03:55:14;101143.72;;;14.86;95.02
4981;BME280;2507;50.392;7.482;2022-10-17T03:57:39;101152.09;;;15.02;93.91
4981;BME280;2507;50.392;7.482;2022-10-17T04:00:05;101148.50;;;15.03;93.07
4981;BME280;2507;50.392;7.482;2022-10-17T04:02:30;101161.06;;;15.11;92.94
4981;BME280;2507;50.392;7.482;2022-10-17T04:04:55;101157.75;;;15.09;92.25
4981;BME280;2507;50.392;7.482;2022-10-17T04:07:21;101159.28;;;15.11;92.20
4981;BME280;2507;50.392;7.482;2022-10-17T04:09:46;101175.97;;;15.12;91.79
4981;BME280;2507;50.392;7.482;2022-10-17T04:12:11;101183.78;;;15.13;91.87
4981;BME280;2507;50.392;7.482;2022-10-17T04:14:37;101194.38;;;15.02;91.84
4981;BME280;2507;50.392;7.482;2022-10-17T04:17:02;101183.34;;;14.97;92.39
4981;BME280;2507;50.392;7.482;2022-10-17T04:19:28;101185.38;;;15.05;92.34
4981;BME280;2507;50.392;7.482;2022-10-17T04:21:53;101180.94;;;15.05;91.74
4981;BME280;2507;50.392;7.482;2022-10-17T04:24:18;101189.22;;;15.01;92.13
4981;BME280;2507;50.392;7.482;2022-10-17T04:26:44;101184.66;;;15.03;91.54
4981;BME280;2507;50.392;7.482;2022-10-17T04:29:09;101177.66;;;15.02;91.72
4981;BME280;2507;50.392;7.482;2022-10-17T04:31:35;101173.50;;;14.99;91.49
4981;BME280;2507;50.392;7.482;2022-10-17T04:34:00;101167.75;;;14.94;91.48
4981;BME280;2507;50.392;7.482;2022-10-17T04:36:26;101160.03;;;14.91;91.46
4981;BME280;2507;50.392;7.482;2022-10-17T04:38:51;101164.72;;;14.88;91.59
4981;BME280;2507;50.392;7.482;2022-10-17T04:41:17;101166.19;;;14.81;91.06
4981;BME280;2507;50.392;7.482;2022-10-17T04:43:43;101187.44;;;14.57;90.79
4981;BME280;2507;50.392;7.482;2022-10-17T04:46:12;101184.19;;;14.43;92.53
4981;BME280;2507;50.392;7.482;2022-10-17T04:48:39;101170.38;;;14.39;92.41
4981;BME280;2507;50.392;7.482;2022-10-17T04:51:08;101179.50;;;14.35;92.04
4981;BME280;2507;50.392;7.482;2022-10-17T04:53:35;101177.66;;;14.24;91.06
4981;BME280;2507;50.392;7.482;2022-10-17T04:56:05;101168.97;;;14.11;91.96
4981;BME280;2507;50.392;7.482;2022-10-17T04:58:31;101175.34;;;14.09;91.28
4981;BME280;2507;50.392;7.482;2022-10-17T05:00:56;101179.38;;;14.02;91.40
4981;BME280;2507;50.392;7.482;2022-10-17T05:03:21;101183.72;;;14.03;91.75
4981;BME280;2507;50.392;7.482;2022-10-17T05:05:47;101189.75;;;14.05;91.85
4981;BME280;2507;50.392;7.482;2022-10-17T05:08:12;101183.59;;;14.04;92.32
4981;BME280;2507;50.392;7.482;2022-10-17T05:10:39;101182.78;;;14.15;92.46
4981;BME280;2507;50.392;7.482;2022-10-17T05:13:05;101189.03;;;14.14;92.17
4981;BME280;2507;50.392;7.482;2022-10-17T05:15:31;101184.50;;;14.16;92.85
4981;BME280;2507;50.392;7.482;2022-10-17T05:17:56;101173.00;;;14.28;92.01
4981;BME280;2507;50.392;7.482;2022-10-17T05:20:22;101178.16;;;14.29;92.43
4981;BME280;2507;50.392;7.482;2022-10-17T05:22:47;101171.09;;;14.30;91.67
4981;BME280;2507;50.392;7.482;2022-10-17T05:25:13;101170.50;;;14.26;92.10
4981;BME280;2507;50.392;7.482;2022-10-17T05:27:38;101177.34;;;14.29;92.63
4981;BME280;2507;50.392;7.482;2022-10-17T05:30:04;101181.66;;;14.30;92.83
4981;BME280;2507;50.392;7.482;2022-10-17T05:32:29;101177.22;;;14.30;92.67
4981;BME280;2507;50.392;7.482;2022-10-17T05:34:55;101183.84;;;14.36;92.52
4981;BME280;2507;50.392;7.482;2022-10-17T05:37:20;101181.41;;;14.33;92.63
4981;BME280;2507;50.392;7.482;2022-10-17T05:39:45;101185.63;;;14.36;92.62
4981;BME280;2507;50.392;7.482;2022-10-17T05:42:11;101190.44;;;14.30;92.83
4981;BME280;2507;50.392;7.482;2022-10-17T05:44:36;101176.00;;;14.34;93.32
4981;BME280;2507;50.392;7.482;2022-10-17T05:47:03;101179.03;;;14.41;93.11
4981;BME280;2507;50.392;7.482;2022-10-17T05:49:28;101167.50;;;14.42;92.63
4981;BME280;2507;50.392;7.482;2022-10-17T05:51:54;101174.94;;;14.48;92.38
4981;BME280;2507;50.392;7.482;2022-10-17T05:54:19;101171.84;;;14.43;92.43
4981;BME280;2507;50.392;7.482;2022-10-17T05:56:44;101184.06;;;14.44;92.14
4981;BME280;2507;50.392;7.482;2022-10-17T05:59:10;101185.75;;;14.45;92.22
4981;BME280;2507;50.392;7.482;2022-10-17T06:01:35;101192.84;;;14.45;91.88
4981;BME280;2507;50.392;7.482;2022-10-17T06:04:00;101195.34;;;14.46;92.26
4981;BME280;2507;50.392;7.482;2022-10-17T06:06:25;101194.63;;;14.44;92.70
4981;BME280;2507;50.392;7.482;2022-10-17T06:08:51;101194.03;;;14.52;92.73
4981;BME280;2507;50.392;7.482;2022-10-17T06:11:16;101194.16;;;14.61;92.59
4981;BME280;2507;50.392;7.482;2022-10-17T06:13:41;101202.91;;;14.84;93.63
4981;BME280;2507;50.392;7.482;2022-10-17T06:16:07;101203.00;;;15.15;92.14
4981;BME280;2507;50.392;7.482;2022-10-17T06:18:32;101204.28;;;15.54;93.11
4981;BME280;2507;50.392;7.482;2022-10-17T06:21:05;101193.63;;;16.17;92.83
4981;BME280;2507;50.392;7.482;2022-10-17T06:23:32;101201.91;;;16.75;90.64
4981;BME280;2507;50.392;7.482;2022-10-17T06:25:59;101210.56;;;17.16;87.54
4981;BME280;2507;50.392;7.482;2022-10-17T06:28:24;101201.78;;;17.25;84.67
4981;BME280;2507;50.392;7.482;2022-10-17T06:30:49;101210.50;;;17.47;84.31
4981;BME280;2507;50.392;7.482;2022-10-17T06:33:15;101220.31;;;17.56;82.88
4981;BME280;2507;50.392;7.482;2022-10-17T06:35:40;101214.31;;;17.82;83.98
4981;BME280;2507;50.392;7.482;2022-10-17T06:38:06;101233.47;;;18.14;82.24
4981;BME280;2507;50.392;7.482;2022-10-17T06:40:31;101238.31;;;18.38;80.85
4981;BME280;2507;50.392;7.482;2022-10-17T06:42:56;101238.44;;;18.65;80.99
4981;BME280;2507;50.392;7.482;2022-10-17T06:45:22;101238.53;;;19.10;80.01
4981;BME280;2507;50.392;7.482;2022-10-17T06:47:47;101232.53;;;19.35;76.10
4981;BME280;2507;50.392;7.482;2022-10-17T06:50:13;101229.53;;;19.83;75.30
4981;BME280;2507;50.392;7.482;2022-10-17T06:52:39;101239.28;;;20.27;73.53
4981;BME280;2507;50.392;7.482;2022-10-17T06:55:04;101245.50;;;20.61;70.78
4981;BME280;2507;50.392;7.482;2022-10-17T06:57:30;101241.63;;;20.81;68.75
4981;BME280;2507;50.392;7.482;2022-10-17T06:59:55;101240.00;;;21.22;69.89
4981;BME280;2507;50.392;7.482;2022-10-17T07:02:22;101244.78;;;21.60;67.47
4981;BME280;2507;50.392;7.482;2022-10-17T07:04:48;101236.66;;;21.78;65.47
4981;BME280;2507;50.392;7.482;2022-10-17T07:07:13;101243.03;;;21.85;64.14
4981;BME280;2507;50.392;7.482;2022-10-17T07:09:39;101251.03;;;21.93;63.56
4981;BME280;2507;50.392;7.482;2022-10-17T07:12:04;101240.53;;;22.15;63.26
4981;BME280;2507;50.392;7.482;2022-10-17T07:14:32;101247.38;;;22.42;62.06
4981;BME280;2507;50.392;7.482;2022-10-17T07:16:58;101257.09;;;22.59;62.00
4981;BME280;2507;50.392;7.482;2022-10-17T07:19:24;101251.38;;;22.46;60.12
4981;BME280;2507;50.392;7.482;2022-10-17T07:21:51;101250.91;;;22.10;59.85
4981;BME280;2507;50.392;7.482;2022-10-17T07:24:16;101247.44;;;21.52;63.53
4981;BME280;2507;50.392;7.482;2022-10-17T07:26:41;101259.00;;;21.69;63.66
4981;BME280;2507;50.392;7.482;2022-10-17T07:29:06;101259.28;;;21.42;63.44
4981;BME280;2507;50.392;7.482;2022-10-17T07:31:32;101274.47;;;21.07;64.59
4981;BME280;2507;50.392;7.482;2022-10-17T07:34:00;101268.66;;;20.35;67.40
4981;BME280;2507;50.392;7.482;2022-10-17T07:36:26;101274.13;;;19.98;69.27
4981;BME280;2507;50.392;7.482;2022-10-17T07:38:51;101273.69;;;19.85;68.95
4981;BME280;2507;50.392;7.482;2022-10-17T07:41:16;101269.34;;;19.67;70.97
4981;BME280;2507;50.392;7.482;2022-10-17T07:43:43;101265.75;;;19.76;70.13
4981;BME280;2507;50.392;7.482;2022-10-17T07:46:08;101276.41;;;19.76;70.59
4981;BME280;2507;50.392;7.482;2022-10-17T07:48:35;101267.72;;;19.91;69.85
4981;BME280;2507;50.392;7.482;2022-10-17T07:51:02;101267.13;;;20.15;69.11
4981;BME280;2507;50.392;7.482;2022-10-17T07:53:28;101267.28;;;20.13;68.85
4981;BME280;2507;50.392;7.482;2022-10-17T07:55:53;101270.03;;;19.69;71.32
4981;BME280;2507;50.392;7.482;2022-10-17T07:58:19;101273.16;;;19.27;73.06
4981;BME280;2507;50.392;7.482;2022-10-17T08:00:44;101288.94;;;19.11;74.77
4981;BME280;2507;50.392;7.482;2022-10-17T08:03:12;101282.53;;;19.04;75.47
4981;BME280;2507;50.392;7.482;2022-10-17T08:05:37;101279.66;;;19.15;76.00
4981;BME280;2507;50.392;7.482;2022-10-17T08:08:03;101270.81;;;19.52;74.48
4981;BME280;2507;50.392;7.482;2022-10-17T08:10:28;101272.78;;;19.94;72.38
4981;BME280;2507;50.392;7.482;2022-10-17T08:12:54;101270.88;;;20.22;71.39
4981;BME280;2507;50.392;7.482;2022-10-17T08:15:20;101268.09;;;20.49;70.75
4981;BME280;2507;50.392;7.482;2022-10-17T08:17:46;101270.38;;;20.62;69.94
4981;BME280;2507;50.392;7.482;2022-10-17T08:20:11;101272.97;;;20.54;69.51
4981;BME280;2507;50.392;7.482;2022-10-17T08:22:36;101267.19;;;20.41;70.68
4981;BME280;2507;50.392;7.482;2022-10-17T08:25:02;101272.94;;;20.10;72.09
4981;BME280;2507;50.392;7.482;2022-10-17T08:27:28;101275.44;;;20.12;73.36
4981;BME280;2507;50.392;7.482;2022-10-17T08:29:54;101270.66;;;19.98;73.60
4981;BME280;2507;50.392;7.482;2022-10-17T08:32:20;101275.81;;;19.99;74.03
4981;BME280;2507;50.392;7.482;2022-10-17T08:34:46;101272.16;;;19.83;75.19
4981;BME280;2507;50.392;7.482;2022-10-17T08:37:11;101275.41;;;19.77;75.76
4981;BME280;2507;50.392;7.482;2022-10-17T08:39:43;101273.38;;;20.06;75.26
4981;BME280;2507;50.392;7.482;2022-10-17T08:42:18;101274.84;;;20.36;73.82
4981;BME280;2507;50.392;7.482;2022-10-17T08:48:08;101272.47;;;20.84;71.93
4981;BME280;2507;50.392;7.482;2022-10-17T08:51:02;101273.88;;;21.21;70.62
4981;BME280;2507;50.392;7.482;2022-10-17T08:56:15;101273.13;;;21.03;71.53
4981;BME280;2507;50.392;7.482;2022-10-17T08:58:41;101283.50;;;21.06;72.59
4981;BME280;2507;50.392;7.482;2022-10-17T09:01:33;101299.56;;;20.97;72.45
4981;BME280;2507;50.392;7.482;2022-10-17T09:07:01;101289.63;;;21.33;72.08
4981;BME280;2507;50.392;7.482;2022-10-17T09:09:54;101287.72;;;21.67;71.22
4981;BME280;2507;50.392;7.482;2022-10-17T09:15:20;101303.72;;;22.24;68.03
4981;BME280;2507;50.392;7.482;2022-10-17T09:20:56;101311.22;;;22.13;69.49
4981;BME280;2507;50.392;7.482;2022-10-17T09:23:27;101313.06;;;22.20;68.85
4981;BME280;2507;50.392;7.482;2022-10-17T09:25:57;101310.41;;;22.28;68.68
4981;BME280;2507;50.392;7.482;2022-10-17T09:28:34;101307.22;;;22.17;68.12
4981;BME280;2507;50.392;7.482;2022-10-17T09:31:08;101306.03;;;21.95;69.07
4981;BME280;2507;50.392;7.482;2022-10-17T09:33:38;101303.22;;;22.05;69.05
4981;BME280;2507;50.392;7.482;2022-10-17T09:36:13;101312.75;;;22.23;68.56
4981;BME280;2507;50.392;7.482;2022-10-17T09:38:53;101310.25;;;22.14;69.10
4981;BME280;2507;50.392;7.482;2022-10-17T09:41:35;101315.91;;;22.35;69.15
4981;BME280;2507;50.392;7.482;2022-10-17T09:44:22;101301.22;;;22.39;66.54
4981;BME280;2507;50.392;7.482;2022-10-17T09:50:24;101303.84;;;23.03;64.35
4981;BME280;2507;50.392;7.482;2022-10-17T09:52:51;101297.34;;;23.45;62.97
4981;BME280;2507;50.392;7.482;2022-10-17T09:55:28;101292.09;;;23.59;61.84
4981;BME280;2507;50.392;7.482;2022-10-17T09:57:58;101311.53;;;23.53;62.54
4981;BME280;2507;50.392;7.482;2022-10-17T10:00:27;101312.94;;;23.72;61.27
4981;BME280;2507;50.392;7.482;2022-10-17T10:05:37;101317.06;;;24.13;59.83
4981;BME280;2507;50.392;7.482;2022-10-17T10:08:10;101327.19;;;24.25;59.56
4981;BME280;2507;50.392;7.482;2022-10-17T10:10:37;101326.50;;;24.32;58.06
4981;BME280;2507;50.392;7.482;2022-10-17T10:15:43;101330.38;;;23.98;58.22
4981;BME280;2507;50.392;7.482;2022-10-17T10:21:13;101335.63;;;24.22;58.12
4981;BME280;2507;50.392;7.482;2022-10-17T10:23:44;101335.19;;;24.11;58.05
4981;BME280;2507;50.392;7.482;2022-10-17T10:26:28;101340.91;;;24.08;57.99
4981;BME280;2507;50.392;7.482;2022-10-17T10:29:00;101348.81;;;24.32;57.93
4981;BME280;2507;50.392;7.482;2022-10-17T10:33:59;101344.34;;;24.47;57.33
4981;BME280;2507;50.392;7.482;2022-10-17T10:36:42;101359.56;;;24.69;56.52
4981;BME280;2507;50.392;7.482;2022-10-17T10:39:26;101354.88;;;24.71;56.47
4981;BME280;2507;50.392;7.482;2022-10-17T10:41:52;101354.38;;;24.68;57.26
4981;BME280;2507;50.392;7.482;2022-10-17T10:44:22;101358.69;;;24.77;56.77
4981;BME280;2507;50.392;7.482;2022-10-17T10:47:04;101353.16;;;24.93;56.59
4981;BME280;2507;50.392;7.482;2022-10-17T10:49:31;101350.81;;;24.75;56.60
4981;BME280;2507;50.392;7.482;2022-10-17T10:51:58;101348.88;;;24.84;56.71
4981;BME280;2507;50.392;7.482;2022-10-17T10:54:31;101348.19;;;25.04;56.21
4981;BME280;2507;50.392;7.482;2022-10-17T10:56:59;101356.63;;;25.31;55.68
4981;BME280;2507;50.392;7.482;2022-10-17T10:59:36;101349.78;;;25.43;55.67
4981;BME280;2507;50.392;7.482;2022-10-17T11:02:24;101345.63;;;25.40;54.94
4981;BME280;2507;50.392;7.482;2022-10-17T11:04:56;101359.53;;;25.44;55.06
4981;BME280;2507;50.392;7.482;2022-10-17T11:07:30;101367.22;;;25.47;54.65
4981;BME280;2507;50.392;7.482;2022-10-17T11:10:24;101366.13;;;25.41;55.47
4981;BME280;2507;50.392;7.482;2022-10-17T11:13:19;101372.88;;;25.52;55.12
4981;BME280;2507;50.392;7.482;2022-10-17T11:15:56;101370.63;;;25.70;54.26
4981;BME280;2507;50.392;7.482;2022-10-17T11:18:29;101365.97;;;25.78;54.34
4981;BME280;2507;50.392;7.482;2022-10-17T11:21:18;101367.72;;;25.86;54.17
4981;BME280;2507;50.392;7.482;2022-10-17T11:24:07;101373.75;;;25.88;54.26
4981;BME280;2507;50.392;7.482;2022-10-17T11:26:59;101378.72;;;26.20;54.48
4981;BME280;2507;50.392;7.482;2022-10-17T11:29:31;101377.69;;;26.21;53.68
4981;BME280;2507;50.392;7.482;2022-10-17T11:32:02;101381.91;;;26.30;54.54
4981;BME280;2507;50.392;7.482;2022-10-17T11:34:33;101380.88;;;26.10;53.54
4981;BME280;2507;50.392;7.482;2022-10-17T11:37:06;101394.09;;;25.76;53.96
4981;BME280;2507;50.392;7.482;2022-10-17T11:39:50;101394.09;;;25.76;54.97
4981;BME280;2507;50.392;7.482;2022-10-17T11:42:22;101396.97;;;25.74;54.73
4981;BME280;2507;50.392;7.482;2022-10-17T11:44:54;101406.25;;;25.72;54.88
4981;BME280;2507;50.392;7.482;2022-10-17T11:50:29;101385.38;;;25.74;55.16
4981;BME280;2507;50.392;7.482;2022-10-17T11:53:00;101383.56;;;25.95;53.94
4981;BME280;2507;50.392;7.482;2022-10-17T11:55:29;101380.69;;;25.97;54.51
4981;BME280;2507;50.392;7.482;2022-10-17T12:03:33;101397.16;;;26.23;53.85
4981;BME280;2507;50.392;7.482;2022-10-17T12:08:41;101377.81;;;26.34;53.23
4981;BME280;2507;50.392;7.482;2022-10-17T12:11:18;101380.75;;;26.39;53.51
4981;BME280;2507;50.392;7.482;2022-10-17T12:13:50;101382.38;;;26.34;53.19
4981;BME280;2507;50.392;7.482;2022-10-17T12:19:17;101381.47;;;26.05;53.96
4981;BME280;2507;50.392;7.482;2022-10-17T12:24:39;101374.78;;;26.65;53.22
4981;BME280;2507;50.392;7.482;2022-10-17T12:27:21;101374.16;;;26.84;52.39
4981;BME280;2507;50.392;7.482;2022-10-17T12:29:48;101371.75;;;26.95;52.38
4981;BME280;2507;50.392;7.482;2022-10-17T12:32:14;101378.88;;;27.03;52.43
4981;BME280;2507;50.392;7.482;2022-10-17T12:34:53;101362.91;;;27.01;52.79
4981;BME280;2507;50.392;7.482;2022-10-17T12:45:51;101367.91;;;27.32;51.35
4981;BME280;2507;50.392;7.482;2022-10-17T12:51:33;101395.81;;;26.97;52.33
4981;BME280;2507;50.392;7.482;2022-10-17T12:56:35;101384.91;;;26.84;52.44
4981;BME280;2507;50.392;7.482;2022-10-17T12:59:07;101388.47;;;26.63;52.68
4981;BME280;2507;50.392;7.482;2022-10-17T13:01:37;101389.53;;;26.48;53.24
4981;BME280;2507;50.392;7.482;2022-10-17T13:04:03;101392.75;;;26.58;53.34
4981;BME280;2507;50.392;7.482;2022-10-17T13:06:33;101403.91;;;26.55;53.31
4981;BME280;2507;50.392;7.482;2022-10-17T13:09:17;101401.69;;;26.58;53.43
4981;BME280;2507;50.392;7.482;2022-10-17T13:11:45;101403.22;;;26.67;53.79
4981;BME280;2507;50.392;7.482;2022-10-17T13:14:14;101393.44;;;26.66;53.27
4981;BME280;2507;50.392;7.482;2022-10-17T13:16:53;101393.44;;;26.66;52.84
4981;BME280;2507;50.392;7.482;2022-10-17T13:19:22;101402.22;;;26.68;53.18
4981;BME280;2507;50.392;7.482;2022-10-17T13:21:49;101409.25;;;26.69;52.88
4981;BME280;2507;50.392;7.482;2022-10-17T13:24:37;101404.13;;;26.74;53.18
4981;BME280;2507;50.392;7.482;2022-10-17T13:27:05;101407.28;;;26.78;53.03
4981;BME280;2507;50.392;7.482;2022-10-17T13:29:31;101408.03;;;26.51;52.52
4981;BME280;2507;50.392;7.482;2022-10-17T13:32:04;101411.44;;;26.38;52.52
4981;BME280;2507;50.392;7.482;2022-10-17T13:34:31;101420.91;;;26.34;52.87
4981;BME280;2507;50.392;7.482;2022-10-17T13:36:59;101423.00;;;26.03;53.79
4981;BME280;2507;50.392;7.482;2022-10-17T13:39:28;101427.00;;;25.92;54.02
4981;BME280;2507;50.392;7.482;2022-10-17T13:41:55;101420.13;;;25.90;53.64
4981;BME280;2507;50.392;7.482;2022-10-17T13:44:27;101430.16;;;25.96;53.83
4981;BME280;2507;50.392;7.482;2022-10-17T13:46:53;101425.63;;;25.82;53.88
4981;BME280;2507;50.392;7.482;2022-10-17T13:49:38;101421.97;;;25.89;53.85
4981;BME280;2507;50.392;7.482;2022-10-17T13:52:05;101422.47;;;25.64;54.35
4981;BME280;2507;50.392;7.482;2022-10-17T13:54:39;101434.72;;;25.66;54.83
4981;BME280;2507;50.392;7.482;2022-10-17T13:57:16;101434.25;;;25.77;54.45
4981;BME280;2507;50.392;7.482;2022-10-17T13:59:43;101435.28;;;25.91;54.11
4981;BME280;2507;50.392;7.482;2022-10-17T14:02:22;101432.00;;;25.81;53.84
4981;BME280;2507;50.392;7.482;2022-10-17T14:08:12;101435.44;;;26.04;53.71
4981;BME280;2507;50.392;7.482;2022-10-17T14:10:33;101428.00;;;26.06;53.43
4981;BME280;2507;50.392;7.482;2022-10-17T14:12:59;101426.97;;;26.21;53.27
4981;BME280;2507;50.392;7.482;2022-10-17T14:15:27;101436.50;;;26.24;52.75
4981;BME280;2507;50.392;7.482;2022-10-17T14:17:57;101427.72;;;26.15;53.05
4981;BME280;2507;50.392;7.482;2022-10-17T14:20:23;101431.63;;;25.98;53.00
4981;BME280;2507;50.392;7.482;2022-10-17T14:22:49;101437.59;;;25.79;53.94
4981;BME280;2507;50.392;7.482;2022-10-17T14:25:35;101437.88;;;25.70;53.83
4981;BME280;2507;50.392;7.482;2022-10-17T14:28:02;101436.66;;;25.43;54.34
4981;BME280;2507;50.392;7.482;2022-10-17T14:30:38;101442.88;;;25.44;54.59
4981;BME280;2507;50.392;7.482;2022-10-17T14:33:07;101442.88;;;25.44;54.49
4981;BME280;2507;50.392;7.482;2022-10-17T14:35:33;101434.41;;;25.32;54.38
4981;BME280;2507;50.392;7.482;2022-10-17T14:38:01;101444.31;;;25.32;54.72
4981;BME280;2507;50.392;7.482;2022-10-17T14:40:29;101442.97;;;25.50;54.53
4981;BME280;2507;50.392;7.482;2022-10-17T14:42:57;101446.56;;;25.43;55.04
4981;BME280;2507;50.392;7.482;2022-10-17T14:45:29;101454.66;;;25.57;54.22
4981;BME280;2507;50.392;7.482;2022-10-17T14:47:59;101450.19;;;25.64;53.73
4981;BME280;2507;50.392;7.482;2022-10-17T14:50:28;101454.63;;;25.43;54.08